Time;durP1;ratioP1;P1;durP2;ratioP2;P2;SDS_P1;SDS_P2;PMS_P1;PMS_P2;Temp;Humidity;BMP_temperature;BMP_pressure;BME280_temperature;BME280_humidity;BME280_pressure;Samples;Min_cycle;Max_cycle;Signal;HPM_P1;HPM_P2
2021/12/01 00:00:35;;;;;;;5.32;1.27;;;19.30;65.50;;;;;;4505076;31;20144;-74
2021/12/01 00:03:01;;;;;;;5.63;1.50;;;19.30;65.50;;;;;;4495570;31;20282;-74
2021/12/01 00:05:29;;;;;;;6.90;1.30;;;19.30;65.50;;;;;;4490045;31;20121;-74
2021/12/01 00:07:56;;;;;;;4.47;1.30;;;19.30;65.50;;;;;;4493362;31;20201;-74
2021/12/01 00:10:24;;;;;;;6.65;1.45;;;19.30;65.50;;;;;;4493544;31;20164;-74
2021/12/01 00:12:50;;;;;;;4.50;1.30;;;19.30;65.50;;;;;;4492978;31;20258;-74
2021/12/01 00:15:17;;;;;;;5.40;1.33;;;19.30;65.60;;;;;;4493767;32;20160;-74
2021/12/01 00:17:43;;;;;;;7.47;1.50;;;19.30;65.60;;;;;;4491496;32;20130;-75
2021/12/01 00:20:12;;;;;;;4.95;1.10;;;19.20;65.50;;;;;;4494553;32;20108;-75
2021/12/01 00:22:39;;;;;;;6.68;1.40;;;19.20;65.60;;;;;;4490118;32;20128;-74
2021/12/01 00:25:07;;;;;;;6.30;1.38;;;19.20;65.70;;;;;;4493366;32;20140;-74
2021/12/01 00:27:35;;;;;;;7.70;1.42;;;19.20;65.70;;;;;;4481025;32;20150;-74
2021/12/01 00:30:01;;;;;;;2.88;1.00;;;19.20;65.70;;;;;;4492785;32;20136;-74
2021/12/01 00:32:27;;;;;;;5.40;1.10;;;19.20;65.70;;;;;;4479541;32;20119;-74
2021/12/01 00:34:53;;;;;;;5.32;1.40;;;19.20;65.70;;;;;;4490344;32;20152;-74
2021/12/01 00:37:20;;;;;;;5.15;1.02;;;19.20;65.80;;;;;;4492114;31;20144;-74
2021/12/01 00:39:46;;;;;;;3.78;1.13;;;19.10;65.70;;;;;;4491011;31;20172;-74
2021/12/01 00:42:12;;;;;;;7.53;1.30;;;19.10;65.70;;;;;;4480914;32;20129;-74
2021/12/01 00:44:45;;;;;;;6.30;1.27;;;19.10;65.70;;;;;;4487131;32;20516;-74
2021/12/01 00:47:13;;;;;;;2.72;1.00;;;19.10;65.70;;;;;;4488806;31;20294;-74
2021/12/01 00:49:41;;;;;;;2.78;0.85;;;19.10;65.70;;;;;;4495000;31;20190;-74
2021/12/01 00:52:08;;;;;;;3.80;1.10;;;19.10;65.80;;;;;;4490012;31;20187;-74
2021/12/01 00:54:34;;;;;;;4.15;1.05;;;19.10;65.80;;;;;;4495069;31;20138;-74
2021/12/01 00:57:01;;;;;;;3.50;1.20;;;19.00;65.80;;;;;;4489157;31;20132;-73
2021/12/01 00:59:27;;;;;;;4.30;1.05;;;19.00;65.70;;;;;;4506164;31;20139;-73
2021/12/01 01:01:53;;;;;;;6.38;1.45;;;19.00;65.80;;;;;;4492623;31;20159;-73
2021/12/01 01:04:19;;;;;;;4.97;0.95;;;19.00;65.80;;;;;;4491730;31;20210;-74
2021/12/01 01:06:45;;;;;;;5.47;1.10;;;19.00;65.80;;;;;;4506466;31;20255;-74
2021/12/01 01:09:11;;;;;;;3.17;0.93;;;19.00;66.70;;;;;;4489918;31;20182;-74
2021/12/01 01:17:12;;;;;;;4.32;1.25;;;19.00;65.90;;;;;;4483779;31;20209;-74
2021/12/01 01:19:39;;;;;;;3.22;0.90;;;19.00;65.90;;;;;;4495665;31;20317;-74
2021/12/01 01:22:06;;;;;;;3.05;0.93;;;19.00;65.90;;;;;;4482071;31;20139;-74
2021/12/01 01:24:34;;;;;;;3.65;1.10;;;19.00;65.90;;;;;;4483568;31;20423;-73
2021/12/01 01:27:00;;;;;;;3.25;0.90;;;18.90;65.80;;;;;;4482768;31;20238;-74
2021/12/01 01:29:27;;;;;;;2.70;1.00;;;18.90;65.80;;;;;;4482653;31;20137;-74
2021/12/01 01:31:55;;;;;;;3.25;1.05;;;18.90;65.80;;;;;;4481943;31;20099;-73
2021/12/01 01:34:23;;;;;;;2.67;0.80;;;18.90;65.80;;;;;;4493207;31;20341;-74
2021/12/01 01:36:49;;;;;;;3.65;0.93;;;18.90;65.80;;;;;;4483232;32;20503;-74
2021/12/01 01:39:15;;;;;;;3.55;1.23;;;18.90;65.80;;;;;;4481424;31;20123;-73
2021/12/01 01:41:41;;;;;;;3.13;0.77;;;18.90;65.80;;;;;;4482863;31;20121;-74
2021/12/01 01:44:07;;;;;;;2.22;0.73;;;18.90;65.80;;;;;;4481881;31;20144;-74
2021/12/01 01:46:36;;;;;;;2.92;0.70;;;18.90;65.80;;;;;;4493420;31;20190;-73
2021/12/01 01:51:51;;;;;;;5.40;1.20;;;18.90;65.80;;;;;;4457082;31;20589;-74
2021/12/01 01:54:17;;;;;;;4.22;0.98;;;18.80;65.80;;;;;;4483475;31;20263;-73
2021/12/01 01:56:44;;;;;;;2.65;0.90;;;18.80;65.70;;;;;;4481488;31;20139;-73
2021/12/01 01:59:10;;;;;;;5.35;1.17;;;18.80;65.70;;;;;;4481927;31;20120;-74
2021/12/01 02:01:46;;;;;;;3.47;0.70;;;18.80;65.80;;;;;;4482629;32;20572;-73
2021/12/01 02:04:15;;;;;;;4.72;1.00;;;18.80;65.80;;;;;;4480585;32;20129;-74
2021/12/01 02:06:43;;;;;;;3.17;0.65;;;18.80;65.80;;;;;;4483014;32;20143;-74
2021/12/01 02:09:09;;;;;;;4.18;1.00;;;18.80;65.80;;;;;;4481343;31;20143;-73
2021/12/01 02:11:35;;;;;;;1.60;0.85;;;18.80;65.80;;;;;;4481909;32;20110;-73
2021/12/01 02:14:02;;;;;;;2.65;1.00;;;18.80;65.80;;;;;;4465769;32;20191;-73
2021/12/01 02:16:28;;;;;;;2.83;0.90;;;18.80;65.80;;;;;;4482060;31;20143;-74
2021/12/01 02:18:54;;;;;;;2.17;0.80;;;18.80;65.80;;;;;;4482877;32;20117;-73
2021/12/01 02:21:29;;;;;;;2.08;0.60;;;18.80;65.80;;;;;;4481509;32;20205;-74
2021/12/01 02:23:58;;;;;;;1.73;0.70;;;18.80;65.80;;;;;;4483094;31;20139;-73
2021/12/01 02:26:25;;;;;;;2.05;0.68;;;18.80;65.80;;;;;;4480072;32;20195;-74
2021/12/01 02:28:55;;;;;;;4.82;1.00;;;18.80;65.80;;;;;;4482544;31;20130;-73
2021/12/01 02:31:25;;;;;;;3.92;0.80;;;18.80;65.80;;;;;;4480691;32;20121;-73
2021/12/01 02:33:53;;;;;;;3.28;1.23;;;18.80;65.80;;;;;;4480613;32;20137;-73
2021/12/01 02:36:19;;;;;;;2.58;0.57;;;18.70;65.80;;;;;;4481687;32;20143;-73
2021/12/01 02:38:47;;;;;;;2.85;0.70;;;18.70;65.70;;;;;;4480601;31;20132;-74
2021/12/01 02:41:13;;;;;;;2.40;0.80;;;18.70;65.70;;;;;;4482666;32;20124;-73
2021/12/01 02:43:39;;;;;;;2.58;0.70;;;18.70;65.80;;;;;;4479608;32;20121;-73
2021/12/01 02:46:06;;;;;;;3.22;0.93;;;18.70;65.80;;;;;;4481413;31;20183;-73
2021/12/01 02:48:36;;;;;;;4.45;0.80;;;18.70;65.80;;;;;;4480966;31;20117;-73
2021/12/01 02:51:05;;;;;;;2.63;1.00;;;18.70;65.70;;;;;;4492992;31;20133;-73
2021/12/01 02:53:31;;;;;;;2.25;0.80;;;18.70;65.80;;;;;;4496167;31;20581;-73
2021/12/01 02:56:00;;;;;;;1.85;0.75;;;18.70;66.60;;;;;;4482403;31;20739;-73
2021/12/01 02:58:30;;;;;;;2.75;1.13;;;18.70;65.80;;;;;;4482215;31;20198;-73
2021/12/01 03:00:58;;;;;;;2.40;0.70;;;18.70;65.80;;;;;;4480642;32;20177;-73
2021/12/01 03:03:24;;;;;;;5.25;0.68;;;18.70;65.80;;;;;;4494215;31;20239;-73
2021/12/01 03:05:50;;;;;;;2.80;0.80;;;18.70;65.80;;;;;;4481626;32;20156;-73
2021/12/01 03:08:18;;;;;;;1.83;0.60;;;18.70;65.80;;;;;;4480981;31;20148;-73
2021/12/01 03:10:53;;;;;;;2.67;0.75;;;18.70;65.80;;;;;;4481795;32;20582;-73
2021/12/01 03:13:21;;;;;;;2.45;0.73;;;18.70;65.70;;;;;;4480222;32;20141;-73
2021/12/01 03:15:48;;;;;;;2.55;0.80;;;18.60;65.70;;;;;;4481995;32;20652;-73
2021/12/01 03:18:16;;;;;;;2.58;0.90;;;18.60;65.70;;;;;;4480921;32;20136;-74
2021/12/01 03:20:42;;;;;;;1.50;0.45;;;18.60;65.70;;;;;;4481398;32;20258;-73
2021/12/01 03:23:08;;;;;;;2.22;0.80;;;18.60;65.70;;;;;;4481918;32;20140;-73
2021/12/01 03:25:35;;;;;;;1.90;0.73;;;18.60;65.70;;;;;;4480360;32;20125;-73
2021/12/01 03:28:02;;;;;;;1.48;0.60;;;18.60;65.70;;;;;;4481939;32;20125;-73
2021/12/01 03:30:33;;;;;;;2.30;1.10;;;18.60;65.70;;;;;;4480026;32;20284;-74
2021/12/01 03:33:01;;;;;;;2.50;0.80;;;18.60;65.70;;;;;;4481735;32;20191;-73
2021/12/01 03:35:27;;;;;;;2.35;0.75;;;18.60;65.70;;;;;;4480680;32;20870;-74
2021/12/01 03:37:53;;;;;;;2.35;0.60;;;18.60;65.70;;;;;;4480923;32;20136;-74
2021/12/01 03:40:19;;;;;;;2.25;0.90;;;18.60;65.70;;;;;;4481731;32;20096;-74
2021/12/01 03:42:45;;;;;;;3.33;0.90;;;18.60;65.70;;;;;;4478746;32;20187;-73
2021/12/01 03:45:13;;;;;;;2.05;0.85;;;18.60;65.70;;;;;;4481952;32;20187;-74
2021/12/01 03:47:39;;;;;;;1.35;0.40;;;18.60;65.80;;;;;;4479799;32;20125;-74
2021/12/01 03:50:05;;;;;;;2.17;0.60;;;18.60;65.70;;;;;;4481732;32;20482;-74
2021/12/01 03:52:32;;;;;;;1.23;0.65;;;18.50;65.70;;;;;;4480274;32;20509;-74
2021/12/01 03:54:58;;;;;;;1.38;0.73;;;18.50;65.70;;;;;;4480703;32;20147;-74
2021/12/01 03:57:25;;;;;;;2.45;0.70;;;18.50;65.70;;;;;;4481421;32;20198;-74
2021/12/01 03:59:52;;;;;;;3.63;0.88;;;18.50;65.70;;;;;;4480022;32;20125;-74
2021/12/01 04:02:18;;;;;;;3.53;0.85;;;18.50;65.70;;;;;;4481672;32;20117;-73
2021/12/01 04:04:44;;;;;;;2.40;0.70;;;18.50;65.70;;;;;;4479584;32;20144;-73
2021/12/01 04:07:10;;;;;;;2.60;0.63;;;18.50;65.70;;;;;;4481563;32;20243;-74
2021/12/01 04:09:38;;;;;;;3.97;0.70;;;18.50;65.70;;;;;;4480187;32;20117;-73
2021/12/01 04:12:04;;;;;;;1.85;0.70;;;18.50;65.70;;;;;;4480721;32;20121;-73
2021/12/01 04:14:30;;;;;;;3.83;0.65;;;18.50;65.70;;;;;;4480031;32;20133;-73
2021/12/01 04:16:56;;;;;;;1.92;0.80;;;18.50;65.70;;;;;;4479812;32;20140;-73
2021/12/01 04:19:22;;;;;;;1.70;0.80;;;18.50;65.70;;;;;;4481523;32;20625;-73
2021/12/01 04:21:48;;;;;;;1.80;0.70;;;18.50;65.70;;;;;;4491638;31;20124;-73
2021/12/01 04:24:14;;;;;;;2.47;0.63;;;18.50;65.70;;;;;;4484682;32;20147;-74
2021/12/01 04:26:40;;;;;;;1.90;0.75;;;18.50;65.70;;;;;;4483307;32;20199;-74
2021/12/01 04:29:06;;;;;;;3.65;0.80;;;18.50;65.70;;;;;;4484208;32;20278;-74
2021/12/01 04:31:35;;;;;;;2.38;0.80;;;18.50;66.60;;;;;;4484151;32;20125;-74
2021/12/01 04:34:01;;;;;;;2.10;0.60;;;18.40;65.70;;;;;;4482934;32;20469;-73
2021/12/01 04:36:34;;;;;;;1.30;0.57;;;18.50;65.70;;;;;;4496675;31;20180;-74
2021/12/01 04:39:03;;;;;;;3.25;0.60;;;18.40;65.70;;;;;;4482472;31;20140;-74
2021/12/01 04:41:36;;;;;;;2.08;0.47;;;18.40;65.70;;;;;;4484213;31;20117;-74
2021/12/01 04:44:04;;;;;;;2.75;0.60;;;18.40;65.70;;;;;;4485113;31;20140;-74
2021/12/01 04:46:31;;;;;;;2.08;0.60;;;18.40;65.70;;;;;;4483543;31;20258;-74
2021/12/01 04:48:57;;;;;;;2.13;1.00;;;18.40;65.60;;;;;;4483882;31;20089;-75
2021/12/01 04:51:22;;;;;;;2.97;1.00;;;18.40;65.70;;;;;;4484460;31;20181;-74
2021/12/01 04:53:48;;;;;;;1.50;0.60;;;18.40;65.60;;;;;;4485000;31;20113;-73
2021/12/01 04:56:16;;;;;;;2.13;0.70;;;18.40;65.60;;;;;;4483138;31;20136;-74
2021/12/01 04:58:44;;;;;;;2.47;0.68;;;18.40;65.60;;;;;;4484360;32;20133;-74
2021/12/01 05:01:10;;;;;;;2.25;0.85;;;18.40;65.60;;;;;;4494963;31;20137;-74
2021/12/01 05:03:35;;;;;;;2.85;0.60;;;18.40;65.60;;;;;;4483564;32;20105;-74
2021/12/01 05:06:01;;;;;;;2.67;0.80;;;18.40;65.70;;;;;;4483753;32;20526;-74
2021/12/01 05:08:27;;;;;;;2.05;0.65;;;18.30;65.60;;;;;;4482449;32;20553;-74
2021/12/01 05:10:53;;;;;;;2.42;0.70;;;18.40;65.70;;;;;;4484010;32;20125;-73
2021/12/01 05:13:21;;;;;;;2.15;0.45;;;18.40;65.70;;;;;;4482076;32;20190;-73
2021/12/01 05:15:47;;;;;;;1.80;0.80;;;18.30;65.60;;;;;;4484125;32;20191;-73
2021/12/01 05:18:12;;;;;;;1.92;0.50;;;18.30;65.70;;;;;;4481342;32;20141;-74
2021/12/01 05:20:39;;;;;;;1.38;0.55;;;18.30;65.70;;;;;;4483350;32;20136;-74
2021/12/01 05:23:05;;;;;;;2.92;0.73;;;18.40;65.70;;;;;;4483541;32;20134;-73
2021/12/01 05:25:31;;;;;;;1.95;0.60;;;18.30;65.60;;;;;;4482368;32;20544;-73
2021/12/01 05:27:57;;;;;;;1.48;0.60;;;18.30;65.60;;;;;;4483712;32;20124;-73
2021/12/01 05:30:23;;;;;;;2.85;0.50;;;18.30;65.70;;;;;;4493851;31;20186;-73
2021/12/01 05:32:48;;;;;;;1.58;0.80;;;18.30;65.70;;;;;;4483591;32;20176;-73
2021/12/01 05:35:14;;;;;;;1.75;0.55;;;18.30;65.60;;;;;;4482122;32;20263;-73
2021/12/01 05:37:40;;;;;;;2.35;0.80;;;18.30;65.70;;;;;;4483501;32;20188;-73
2021/12/01 05:40:07;;;;;;;1.45;0.63;;;18.30;65.70;;;;;;4483180;32;20121;-73
2021/12/01 05:42:32;;;;;;;2.80;0.70;;;18.30;65.70;;;;;;4482243;32;20113;-73
2021/12/01 05:44:58;;;;;;;3.20;0.60;;;18.30;65.70;;;;;;4482222;32;20566;-73
2021/12/01 05:47:24;;;;;;;0.93;0.60;;;18.30;65.70;;;;;;4481715;32;20540;-73
2021/12/01 05:49:50;;;;;;;1.95;0.60;;;18.30;65.70;;;;;;4483586;32;20137;-74
2021/12/01 05:52:17;;;;;;;1.88;0.55;;;18.30;65.70;;;;;;4481508;32;20148;-74
2021/12/01 05:54:44;;;;;;;2.47;0.80;;;18.30;65.70;;;;;;4483113;32;20195;-73
2021/12/01 05:57:10;;;;;;;1.17;0.55;;;18.30;65.70;;;;;;4482561;32;20125;-73
2021/12/01 05:59:37;;;;;;;2.75;0.75;;;18.30;65.70;;;;;;4494243;31;20153;-73
2021/12/01 06:02:03;;;;;;;3.15;0.70;;;18.30;65.70;;;;;;4469072;32;20238;-74
2021/12/01 06:04:29;;;;;;;1.65;0.70;;;18.20;65.60;;;;;;4481443;32;20133;-73
2021/12/01 06:06:55;;;;;;;1.55;0.50;;;18.20;65.60;;;;;;4483271;32;20144;-73
2021/12/01 06:09:21;;;;;;;1.55;0.70;;;18.20;65.60;;;;;;4481530;32;20113;-73
2021/12/01 06:11:48;;;;;;;1.10;0.40;;;18.20;65.60;;;;;;4483154;32;20326;-73
2021/12/01 06:14:16;;;;;;;1.83;0.52;;;18.20;65.60;;;;;;4482020;32;20120;-73
2021/12/01 06:16:43;;;;;;;2.10;0.60;;;18.20;65.60;;;;;;4481846;32;20626;-74
2021/12/01 06:19:09;;;;;;;3.85;0.60;;;18.20;65.60;;;;;;4495154;31;20139;-73
2021/12/01 06:21:35;;;;;;;2.35;0.50;;;18.20;65.60;;;;;;4493167;31;20140;-73
2021/12/01 06:24:01;;;;;;;1.35;0.50;;;18.20;65.60;;;;;;4482993;32;20133;-73
2021/12/01 06:26:27;;;;;;;1.80;0.40;;;18.20;65.60;;;;;;4481067;32;20124;-73
2021/12/01 06:28:53;;;;;;;1.67;0.57;;;18.20;65.60;;;;;;4483001;32;20127;-73
2021/12/01 06:31:19;;;;;;;1.55;0.50;;;18.20;65.60;;;;;;4481711;32;20219;-73
2021/12/01 06:33:45;;;;;;;1.30;0.50;;;18.20;65.60;;;;;;4481851;31;20143;-73
2021/12/01 06:36:11;;;;;;;1.30;0.50;;;18.20;65.50;;;;;;4482294;32;20117;-73
2021/12/01 06:38:39;;;;;;;3.30;0.60;;;18.20;66.40;;;;;;4480929;32;20576;-73
2021/12/01 06:41:05;;;;;;;2.20;0.60;;;18.20;65.60;;;;;;4482598;32;20195;-73
2021/12/01 06:43:31;;;;;;;2.20;0.68;;;18.20;65.60;;;;;;4481039;32;20953;-73
2021/12/01 06:45:57;;;;;;;0.88;0.40;;;18.20;65.60;;;;;;4493979;31;20129;-73
2021/12/01 06:48:23;;;;;;;1.73;0.40;;;18.20;65.50;;;;;;4480177;32;20113;-73
2021/12/01 06:50:49;;;;;;;1.88;0.68;;;18.20;65.60;;;;;;4486526;31;20206;-73
2021/12/01 06:53:16;;;;;;;1.48;0.50;;;18.20;65.60;;;;;;4497902;31;20250;-74
2021/12/01 06:55:42;;;;;;;1.63;0.43;;;18.10;65.40;;;;;;4496617;31;20132;-74
2021/12/01 06:58:08;;;;;;;2.15;0.50;;;18.10;65.40;;;;;;4498076;31;20431;-73
2021/12/01 07:00:35;;;;;;;1.02;0.43;;;18.10;65.40;;;;;;4496471;31;20263;-74
2021/12/01 07:03:00;;;;;;;1.13;0.35;;;18.10;65.50;;;;;;4498220;31;20132;-73
2021/12/01 07:05:26;;;;;;;1.10;0.50;;;18.20;65.50;;;;;;4496704;31;20125;-73
2021/12/01 07:07:53;;;;;;;1.38;0.47;;;18.10;65.40;;;;;;4496659;31;20139;-73
2021/12/01 07:10:19;;;;;;;0.75;0.32;;;18.10;66.30;;;;;;4497698;31;20159;-73
2021/12/01 07:12:45;;;;;;;0.45;0.28;;;18.10;65.40;;;;;;4496489;31;20136;-73
2021/12/01 07:15:13;;;;;;;1.00;0.30;;;18.10;65.40;;;;;;4497805;31;20494;-73
2021/12/01 07:17:40;;;;;;;1.27;0.40;;;18.10;65.40;;;;;;4496196;31;20251;-73
2021/12/01 07:20:08;;;;;;;0.55;0.30;;;18.10;65.40;;;;;;4496949;31;20112;-73
2021/12/01 07:22:35;;;;;;;1.17;0.20;;;18.10;65.40;;;;;;4496977;31;20562;-73
2021/12/01 07:25:01;;;;;;;3.35;0.40;;;18.10;65.40;;;;;;4496175;31;20120;-73
2021/12/01 07:27:27;;;;;;;0.90;0.50;;;18.10;65.40;;;;;;4496437;31;20270;-73
2021/12/01 07:29:53;;;;;;;0.85;0.43;;;18.10;65.40;;;;;;4482128;31;20132;-73
2021/12/01 07:32:19;;;;;;;1.27;0.50;;;18.10;65.40;;;;;;4497590;31;20113;-73
2021/12/01 07:34:45;;;;;;;0.73;0.22;;;18.10;65.50;;;;;;4494621;31;20109;-73
2021/12/01 07:37:12;;;;;;;1.42;0.30;;;18.10;65.40;;;;;;4497553;31;20185;-73
2021/12/01 07:39:39;;;;;;;0.95;0.40;;;18.10;65.40;;;;;;4496473;31;20221;-73
2021/12/01 07:42:06;;;;;;;0.77;0.50;;;18.10;65.40;;;;;;4495940;31;20202;-73
2021/12/01 07:44:33;;;;;;;0.47;0.28;;;18.10;65.40;;;;;;4496214;31;20391;-73
2021/12/01 07:47:05;;;;;;;1.65;0.30;;;18.00;65.40;;;;;;4495918;31;20146;-70
2021/12/01 07:49:31;;;;;;;1.23;0.30;;;18.00;65.40;;;;;;4497268;31;20335;-70
2021/12/01 07:51:57;;;;;;;0.55;0.30;;;18.00;65.30;;;;;;4494533;31;20755;-71
2021/12/01 07:54:24;;;;;;;2.90;0.50;;;18.00;65.00;;;;;;4497081;31;20179;-73
2021/12/01 07:56:50;;;;;;;1.13;0.30;;;18.00;64.80;;;;;;4495140;31;20133;-74
2021/12/01 07:59:16;;;;;;;2.70;0.50;;;18.00;64.80;;;;;;4496688;31;20129;-73
2021/12/01 08:01:43;;;;;;;2.05;0.50;;;17.90;64.80;;;;;;4497300;31;20506;-73
2021/12/01 08:04:13;;;;;;;2.30;0.50;;;17.90;64.80;;;;;;4495731;31;20120;-75
2021/12/01 08:06:40;;;;;;;1.02;0.30;;;17.90;64.80;;;;;;4497473;31;20142;-76
2021/12/01 08:09:07;;;;;;;1.27;0.35;;;18.00;64.90;;;;;;4495641;31;20485;-76
2021/12/01 08:11:33;;;;;;;1.65;0.32;;;18.00;64.80;;;;;;4496120;31;20136;-78
2021/12/01 08:13:59;;;;;;;1.83;0.70;;;18.10;64.70;;;;;;4495941;31;20142;-75
2021/12/01 08:16:26;;;;;;;0.90;0.32;;;18.10;64.60;;;;;;4496467;31;20144;-76
2021/12/01 08:18:54;;;;;;;1.65;0.40;;;18.20;64.40;;;;;;4497396;32;20085;-75
2021/12/01 08:21:21;;;;;;;2.92;0.40;;;18.30;64.10;;;;;;4494294;32;20151;-75
2021/12/01 08:23:48;;;;;;;1.00;0.35;;;18.40;63.90;;;;;;4497437;32;20186;-74
2021/12/01 08:26:14;;;;;;;2.63;0.30;;;18.50;63.70;;;;;;4495372;32;20141;-75
2021/12/01 08:28:41;;;;;;;2.05;0.32;;;18.60;63.60;;;;;;4478079;31;34602;-75
2021/12/01 08:31:08;;;;;;;1.15;0.30;;;18.60;63.50;;;;;;4490700;32;20129;-74
2021/12/01 08:33:34;;;;;;;3.15;0.47;;;18.70;63.40;;;;;;4480514;32;20140;-75
2021/12/01 08:36:00;;;;;;;0.90;0.40;;;18.70;63.30;;;;;;4481777;32;20878;-71
2021/12/01 08:38:26;;;;;;;1.10;0.50;;;18.80;63.20;;;;;;4480722;32;20135;-68
2021/12/01 08:40:52;;;;;;;3.28;0.40;;;18.80;63.20;;;;;;4484764;32;20478;-69
2021/12/01 08:43:18;;;;;;;1.55;0.50;;;18.90;63.00;;;;;;4490904;31;20133;-69
2021/12/01 08:45:43;;;;;;;2.90;0.50;;;18.90;63.00;;;;;;4481889;32;20210;-68
2021/12/01 08:48:09;;;;;;;2.53;0.50;;;18.90;62.90;;;;;;4479085;32;20226;-68
2021/12/01 08:50:35;;;;;;;3.88;0.50;;;18.90;62.70;;;;;;4478629;32;20125;-71
2021/12/01 08:53:01;;;;;;;3.88;0.60;;;19.00;62.70;;;;;;4479327;32;20084;-66
2021/12/01 08:55:28;;;;;;;1.25;0.43;;;19.00;62.60;;;;;;4478673;32;20136;-75
2021/12/01 08:57:54;;;;;;;2.75;0.55;;;19.00;62.50;;;;;;4480015;32;20141;-74
2021/12/01 09:00:21;;;;;;;3.10;0.60;;;19.00;62.30;;;;;;4478670;32;20121;-74
2021/12/01 09:02:48;;;;;;;2.65;0.60;;;19.00;62.10;;;;;;4479836;32;20120;-76
2021/12/01 09:05:14;;;;;;;4.53;0.52;;;19.00;62.10;;;;;;4486169;32;20135;-74
2021/12/01 09:07:40;;;;;;;5.72;0.73;;;19.10;62.00;;;;;;4479554;32;20140;-74
2021/12/01 09:10:07;;;;;;;2.33;0.47;;;19.10;61.90;;;;;;4485234;31;20079;-71
2021/12/01 09:12:34;;;;;;;1.30;0.65;;;19.10;61.80;;;;;;4497080;31;20129;-70
2021/12/01 09:15:00;;;;;;;4.85;0.63;;;19.10;61.80;;;;;;4496619;31;20149;-70
2021/12/01 09:17:27;;;;;;;1.60;0.68;;;19.10;61.80;;;;;;4496250;31;20142;-72
2021/12/01 09:19:53;;;;;;;3.13;0.68;;;19.10;61.80;;;;;;4485703;31;20609;-73
2021/12/01 09:22:19;;;;;;;3.60;0.88;;;19.10;61.70;;;;;;4496930;31;20178;-73
2021/12/01 09:24:47;;;;;;;3.13;0.90;;;19.20;61.70;;;;;;4485069;31;20124;-73
2021/12/01 09:27:14;;;;;;;7.80;0.88;;;19.20;61.60;;;;;;4499375;31;20258;-71
2021/12/01 09:29:40;;;;;;;5.50;1.00;;;19.20;61.50;;;;;;4482083;31;20270;-73
2021/12/01 09:32:07;;;;;;;5.53;0.80;;;19.20;61.40;;;;;;4493758;31;20094;-77
2021/12/01 09:34:34;;;;;;;5.18;0.70;;;19.20;61.40;;;;;;4481777;31;20139;-73
2021/12/01 09:37:00;;;;;;;3.80;1.00;;;19.20;61.30;;;;;;4482125;31;20462;-74
2021/12/01 09:39:27;;;;;;;3.22;1.08;;;19.20;61.20;;;;;;4480686;31;20135;-74
2021/12/01 09:41:55;;;;;;;6.18;0.70;;;19.20;61.10;;;;;;4482809;31;20167;-73
2021/12/01 09:44:21;;;;;;;5.30;0.80;;;19.30;61.20;;;;;;4483043;31;20172;-71
2021/12/01 09:46:47;;;;;;;8.05;0.90;;;19.30;61.20;;;;;;4480129;31;20144;-72
2021/12/01 09:49:13;;;;;;;3.65;0.98;;;19.30;61.20;;;;;;4483271;31;20117;-72
2021/12/01 09:51:39;;;;;;;4.55;1.13;;;19.30;61.20;;;;;;4479639;31;20581;-71
2021/12/01 09:54:05;;;;;;;8.05;1.20;;;19.30;61.20;;;;;;4482230;31;20140;-71
2021/12/01 09:56:31;;;;;;;3.88;0.70;;;19.30;61.20;;;;;;4480942;31;20125;-72
2021/12/01 09:59:00;;;;;;;4.40;0.90;;;19.30;61.10;;;;;;4482804;31;20128;-72
2021/12/01 10:01:27;;;;;;;3.97;0.93;;;19.30;61.10;;;;;;4482910;31;20129;-72
2021/12/01 10:03:55;;;;;;;2.60;0.73;;;19.30;61.10;;;;;;4480347;31;20159;-73
2021/12/01 10:06:23;;;;;;;3.13;0.77;;;19.30;61.00;;;;;;4494510;31;20172;-71
2021/12/01 10:08:57;;;;;;;2.47;0.80;;;19.30;61.00;;;;;;4481051;32;20136;-72
2021/12/01 10:11:28;;;;;;;3.72;0.90;;;19.30;61.00;;;;;;4482264;32;20247;-72
2021/12/01 10:13:57;;;;;;;5.30;0.90;;;19.30;61.00;;;;;;4481689;31;20133;-71
2021/12/01 10:16:32;;;;;;;4.18;0.80;;;19.30;61.80;;;;;;4482220;31;20141;-72
2021/12/01 10:19:01;;;;;;;4.15;0.95;;;19.30;61.00;;;;;;4482791;31;20265;-73
2021/12/01 10:21:48;;;;;;;6.85;1.05;;;19.30;61.00;;;;;;4480187;32;20128;-73
2021/12/01 10:24:16;;;;;;;5.13;1.17;;;19.30;61.00;;;;;;4503364;31;20236;-75
2021/12/01 10:26:43;;;;;;;6.47;1.10;;;19.30;61.00;;;;;;4497028;31;20279;-75
2021/12/01 10:29:15;;;;;;;5.55;1.33;;;19.30;61.00;;;;;;4497878;31;20706;-75
2021/12/01 10:31:45;;;;;;;5.10;1.00;;;19.30;60.90;;;;;;4497245;31;20077;-71
2021/12/01 10:34:36;;;;;;;8.90;1.10;;;19.20;60.80;;;;;;4496655;31;20144;-74
2021/12/01 10:37:25;;;;;;;18.33;1.40;;;19.30;60.70;;;;;;4498644;31;20592;-73
2021/12/01 10:40:06;;;;;;;8.60;1.95;;;19.40;60.70;;;;;;4496243;31;20132;-72
2021/12/01 10:42:32;;;;;;;6.85;1.25;;;19.60;60.30;;;;;;4496968;31;20266;-73
2021/12/01 10:45:06;;;;;;;13.82;1.90;;;19.50;60.10;;;;;;4497226;31;20136;-72
2021/12/01 10:47:43;;;;;;;7.57;1.52;;;19.60;59.80;;;;;;4459903;31;55102;-68
2021/12/01 10:50:15;;;;;;;12.25;1.45;;;19.60;59.60;;;;;;4481532;32;20653;-72
2021/12/01 10:52:44;;;;;;;6.65;1.83;;;19.80;59.40;;;;;;4481780;32;20117;-66
2021/12/01 10:55:15;;;;;;;8.98;1.30;;;19.80;59.10;;;;;;4480156;32;20203;-69
2021/12/01 10:57:44;;;;;;;7.97;1.20;;;19.80;58.90;;;;;;4482184;32;20570;-69
2021/12/01 11:00:13;;;;;;;13.52;1.73;;;19.80;59.00;;;;;;4479666;32;20160;-72
2021/12/01 11:02:40;;;;;;;12.45;1.60;;;19.80;59.20;;;;;;4490929;31;20214;-72
2021/12/01 11:05:08;;;;;;;7.38;1.70;;;19.80;59.30;;;;;;4480734;31;20144;-72
2021/12/01 11:07:34;;;;;;;9.15;1.73;;;19.70;59.20;;;;;;4491378;31;20239;-69
2021/12/01 11:10:21;;;;;;;8.45;1.40;;;19.70;59.20;;;;;;4492200;31;20140;-69
2021/12/01 11:12:55;;;;;;;7.88;1.58;;;19.70;59.10;;;;;;4492989;31;20303;-71
2021/12/01 11:15:29;;;;;;;8.13;1.70;;;19.70;59.00;;;;;;4494807;31;20230;-71
2021/12/01 11:17:55;;;;;;;;;;;19.60;59.00;;;;;;4492991;31;20294;-70
2021/12/01 11:20:42;;;;;;;6.03;1.42;;;19.60;59.10;;;;;;4481391;31;20035;-69
2021/12/01 11:23:14;;;;;;;6.57;1.80;;;19.60;59.00;;;;;;4484511;31;20073;-69
2021/12/01 11:25:41;;;;;;;9.77;1.70;;;19.60;58.90;;;;;;4479700;31;20658;-69
2021/12/01 11:28:09;;;;;;;7.75;1.70;;;19.60;58.90;;;;;;4491401;31;20145;-70
2021/12/01 11:30:36;;;;;;;10.18;1.85;;;19.60;58.80;;;;;;4495432;31;20151;-69
2021/12/01 11:33:03;;;;;;;10.68;2.28;;;19.60;58.80;;;;;;4496682;31;20274;-70
2021/12/01 11:35:30;;;;;;;7.63;1.80;;;19.60;58.70;;;;;;4480682;31;20194;-67
2021/12/01 11:37:57;;;;;;;13.82;2.25;;;19.60;58.60;;;;;;4479926;31;20579;-68
2021/12/01 11:40:30;;;;;;;11.80;2.08;;;19.60;58.50;;;;;;4478896;31;20153;-70
2021/12/01 11:42:57;;;;;;;10.68;2.50;;;19.60;58.40;;;;;;4493469;31;20120;-70
2021/12/01 11:45:23;;;;;;;11.90;2.17;;;19.50;58.30;;;;;;4497570;31;20624;-70
2021/12/01 11:47:50;;;;;;;14.10;2.45;;;19.60;58.30;;;;;;4480365;31;20214;-69
2021/12/01 11:50:33;;;;;;;6.65;1.75;;;19.50;58.10;;;;;;4487161;31;20144;-69
2021/12/01 11:53:13;;;;;;;8.57;2.17;;;19.60;58.20;;;;;;4495345;31;20144;-70
2021/12/01 11:56:00;;;;;;;9.93;2.13;;;19.50;58.10;;;;;;4482321;31;20297;-71
2021/12/01 11:58:44;;;;;;;9.88;2.30;;;19.60;58.10;;;;;;4484458;31;20238;-69
2021/12/01 12:01:35;;;;;;;10.73;2.00;;;19.60;58.10;;;;;;4486291;31;20597;-70
2021/12/01 12:04:01;;;;;;;13.27;2.50;;;19.60;58.10;;;;;;4491941;31;20128;-70
2021/12/01 12:06:36;;;;;;;7.85;2.10;;;19.60;58.10;;;;;;4497754;31;20233;-70
2021/12/01 12:09:10;;;;;;;15.40;2.28;;;19.60;58.20;;;;;;4495301;31;20155;-70
2021/12/01 12:11:43;;;;;;;11.07;2.75;;;19.60;58.30;;;;;;4496713;31;20180;-68
2021/12/01 12:14:11;;;;;;;10.35;2.33;;;19.60;58.20;;;;;;4495298;31;20485;-70
2021/12/01 12:16:39;;;;;;;7.63;2.63;;;19.60;58.30;;;;;;4495843;31;20133;-70
2021/12/01 12:19:05;;;;;;;9.35;1.92;;;19.60;58.40;;;;;;4497056;32;20132;-70
2021/12/01 12:21:46;;;;;;;10.48;2.00;;;19.60;58.50;;;;;;4495106;32;20133;-71
2021/12/01 12:24:19;;;;;;;11.55;2.40;;;19.60;58.40;;;;;;4497363;32;20186;-70
2021/12/01 12:26:57;;;;;;;11.07;1.67;;;19.60;58.40;;;;;;4495457;32;20247;-70
2021/12/01 12:29:25;;;;;;;7.13;1.90;;;19.60;58.30;;;;;;4470655;32;22879;-69
2021/12/01 12:32:12;;;;;;;9.70;2.20;;;19.60;58.10;;;;;;4490551;32;20614;-70
2021/12/01 12:34:53;;;;;;;12.00;2.00;;;19.60;57.90;;;;;;4495065;32;20149;-70
2021/12/01 12:37:28;;;;;;;13.05;2.08;;;19.70;57.70;;;;;;4496623;32;20323;-70
2021/12/01 12:39:55;;;;;;;10.27;2.35;;;19.70;57.50;;;;;;4496464;32;20147;-70
2021/12/01 12:42:22;;;;;;;9.98;2.00;;;19.70;57.30;;;;;;4495544;31;20186;-72
2021/12/01 12:44:49;;;;;;;11.98;2.67;;;19.80;57.00;;;;;;4499044;31;20147;-70
2021/12/01 12:47:16;;;;;;;10.32;2.17;;;19.80;56.80;;;;;;4497640;31;20148;-69
2021/12/01 12:49:47;;;;;;;14.70;2.70;;;19.80;56.90;;;;;;4498630;31;20160;-71
2021/12/01 12:52:26;;;;;;;7.72;2.20;;;19.90;56.80;;;;;;4492280;31;20203;-69
2021/12/01 12:55:19;;;;;;;12.40;2.60;;;19.90;56.70;;;;;;4483316;31;20121;-70
2021/12/01 12:57:58;;;;;;;9.73;2.57;;;19.90;56.70;;;;;;4468137;31;20133;-70